Domingo — EA7822 — position and weather

sailwx.info

Track history (hours):
 
Tides and Currents Weather Stations Pressure Air Temp Water Temp Dewpoint Dewpoint Depression Visibility Wind Speed Wind Dir Waves Ship Positions

Domingo

Last reported at 2017-Dec-18 00:53 UTC. Time now 2017-Dec-18 05:29 UTC.
Position N 41°08' E 001°38'.

Length 25 m.

Type: Fishing. MMSI: 224023970.

Date/timePositionNaut miles runAvg speedWind from/ knotsBaromVisibWave heightAir tempDewpointWater temp
2017-Dec-18 00:53N 41°08' E 001°38'3 8.1
2017-Dec-18 00:29N 41°10' E 001°41'  
2017-Dec-15 04:59N 41°13' E 001°44'2 5.0
2017-Dec-15 04:31N 41°11' E 001°44'4 8.5
2017-Dec-15 04:00N 41°07' E 001°40'2 1.1
2017-Dec-15 02:15N 41°09' E 001°39'1 1.1
2017-Dec-15 00:59N 41°10' E 001°40'4 7.8
2017-Dec-15 00:30N 41°12' E 001°44'0 0.0
2017-Dec-13 05:50N 41°13' E 001°44'1 4.0
2017-Dec-13 05:30N 41°12' E 001°44'4 8.2
2017-Dec-13 05:00N 41°08' E 001°47'2 4.2
2017-Dec-13 04:30N 41°09' E 001°50'3 6.6
2017-Dec-13 04:00N 41°08' E 001°45'5 9.7
2017-Dec-13 03:30N 41°10' E 001°39'1 0.3
2017-Dec-12 23:40N 41°11' E 001°40'2 9.4
2017-Dec-12 23:30N 41°12' E 001°42'  
Track history (hours):
 
Tides and Currents Weather Stations Pressure Air Temp Water Temp Dewpoint Dewpoint Depression Visibility Wind Speed Wind Dir Waves Ship Positions

Domingo

Last reported at 2017-Dec-18 00:53 UTC. Time now 2017-Dec-18 05:29 UTC.
Position N 41°08' E 001°38'.

Length 25 m.

Type: Fishing. MMSI: 224023970.

Date/timePositionNaut miles runAvg speedWind from/ knotsBaromVisibWave heightAir tempDewpointWater temp
2017-Dec-18 00:53N 41°08' E 001°38'3 8.1
2017-Dec-18 00:29N 41°10' E 001°41'  
2017-Dec-15 04:59N 41°13' E 001°44'2 5.0
2017-Dec-15 04:31N 41°11' E 001°44'4 8.5
2017-Dec-15 04:00N 41°07' E 001°40'2 1.1
2017-Dec-15 02:15N 41°09' E 001°39'1 1.1
2017-Dec-15 00:59N 41°10' E 001°40'4 7.8
2017-Dec-15 00:30N 41°12' E 001°44'0 0.0
2017-Dec-13 05:50N 41°13' E 001°44'1 4.0
2017-Dec-13 05:30N 41°12' E 001°44'4 8.2
2017-Dec-13 05:00N 41°08' E 001°47'2 4.2
2017-Dec-13 04:30N 41°09' E 001°50'3 6.6
2017-Dec-13 04:00N 41°08' E 001°45'5 9.7
2017-Dec-13 03:30N 41°10' E 001°39'1 0.3
2017-Dec-12 23:40N 41°11' E 001°40'2 9.4
2017-Dec-12 23:30N 41°12' E 001°42'  

Dump ship's entire track history